createdAt,value
2017-03-03T00:00:33.249Z,25.26
2017-03-03T00:01:43.581Z,25.16
2017-03-03T00:02:53.495Z,25.35
2017-03-03T00:04:03.421Z,25.35
2017-03-03T00:05:12.984Z,24.87
2017-03-03T00:06:23.665Z,24.77
2017-03-03T00:07:33.992Z,24.77
2017-03-03T00:08:44.696Z,24.96
2017-03-03T00:09:54.215Z,24.96
2017-03-03T00:11:04.538Z,24.96
2017-03-03T00:12:15.515Z,24.96
2017-03-03T00:13:25.438Z,24.77
2017-03-03T00:14:35.380Z,24.77
2017-03-03T00:15:45.705Z,24.87
2017-03-03T00:16:55.636Z,24.87
2017-03-03T00:18:06.271Z,25.06
2017-03-03T00:19:16.604Z,25.16
2017-03-03T00:20:26.958Z,25.06
2017-03-03T00:21:37.282Z,25.06
2017-03-03T00:22:47.609Z,25.35
2017-03-03T00:23:57.838Z,24.96
2017-03-03T00:25:08.142Z,25.16
2017-03-03T00:26:18.868Z,24.77
2017-03-03T00:27:29.604Z,24.87
2017-03-03T00:28:39.542Z,24.96
2017-03-03T00:29:49.735Z,24.77
2017-03-03T00:30:59.664Z,24.77
2017-03-03T00:32:09.621Z,24.96
2017-03-03T00:33:19.995Z,24.77
2017-03-03T00:34:30.312Z,24.87
2017-03-03T00:35:40.555Z,24.77
2017-03-03T00:36:50.868Z,24.96
2017-03-03T00:38:01.183Z,24.96
2017-03-03T00:39:11.888Z,24.87
2017-03-03T00:40:21.824Z,24.87
2017-03-03T00:41:32.093Z,24.96
2017-03-03T00:42:42.420Z,24.96
2017-03-03T00:43:52.345Z,24.87
2017-03-03T00:45:02.689Z,24.87
2017-03-03T00:46:13.009Z,24.96
2017-03-03T00:47:23.595Z,24.77
2017-03-03T00:48:34.302Z,24.77
2017-03-03T00:49:43.861Z,24.68
2017-03-03T00:50:53.799Z,24.68
2017-03-03T00:52:03.741Z,24.68
2017-03-03T00:53:14.309Z,24.68
2017-03-03T00:54:24.644Z,24.77
2017-03-03T00:55:34.191Z,24.58
2017-03-03T00:56:44.914Z,24.58
2017-03-03T00:57:55.240Z,24.77
2017-03-03T00:59:05.791Z,24.77
2017-03-03T01:00:16.113Z,24.68
2017-03-03T01:01:26.043Z,24.68
2017-03-03T01:02:35.979Z,24.77
2017-03-03T01:03:46.292Z,24.77
2017-03-03T01:04:56.520Z,24.77
2017-03-03T01:06:06.877Z,24.77
2017-03-03T01:07:17.180Z,24.68
2017-03-03T01:08:27.123Z,24.68
2017-03-03T01:09:37.433Z,24.58
2017-03-03T01:10:47.729Z,24.77
2017-03-03T01:11:58.438Z,24.49
2017-03-03T01:13:08.776Z,24.58
2017-03-03T01:14:19.095Z,24.49
2017-03-03T01:15:29.030Z,24.49
2017-03-03T01:16:39.662Z,24.49
2017-03-03T01:17:49.985Z,24.49
2017-03-03T01:19:00.314Z,24.49
2017-03-03T01:20:10.635Z,24.39
2017-03-03T01:21:20.564Z,24.49
2017-03-03T01:22:30.801Z,24.39
2017-03-03T01:23:40.733Z,24.49
2017-03-03T01:24:51.071Z,24.29
2017-03-03T01:26:01.006Z,24.39
2017-03-03T01:27:10.578Z,24.49
2017-03-03T01:28:20.804Z,24.29
2017-03-03T01:29:31.147Z,23.91
2017-03-03T01:30:41.462Z,24.01
2017-03-03T01:31:52.169Z,24.1
2017-03-03T01:33:02.497Z,24.01
2017-03-03T01:34:13.073Z,24.01
2017-03-03T01:35:23.035Z,24.29
2017-03-03T01:36:31.790Z,23.91
2017-03-03T01:37:40.966Z,23.91
2017-03-03T01:38:51.682Z,24.39
2017-03-03T01:40:02.652Z,24.2
2017-03-03T01:41:12.174Z,24.39
2017-03-03T01:42:22.113Z,24.29
2017-03-03T01:43:32.823Z,24.39
2017-03-03T01:44:43.558Z,24.29
2017-03-03T01:45:53.799Z,24.39
2017-03-03T01:47:04.126Z,24.39
2017-03-03T01:48:14.829Z,24.39
2017-03-03T01:49:24.394Z,24.2
2017-03-03T01:50:34.311Z,24.39
2017-03-03T01:51:44.483Z,24.2
2017-03-03T01:52:54.795Z,24.39
2017-03-03T01:54:05.533Z,24.29
2017-03-03T01:55:15.449Z,24.1
2017-03-03T01:56:25.786Z,24.29
2017-03-03T01:57:36.362Z,23.91
2017-03-03T01:58:46.330Z,24.29
2017-03-03T01:59:55.856Z,23.91
2017-03-03T02:01:05.380Z,23.82
2017-03-03T02:02:14.922Z,24.01
2017-03-03T02:03:24.333Z,23.91
2017-03-03T02:04:33.865Z,23.82
2017-03-03T02:05:43.813Z,23.82
2017-03-03T02:06:53.802Z,23.82
2017-03-03T02:08:03.351Z,23.91
2017-03-03T02:09:13.960Z,24.01
2017-03-03T02:10:24.680Z,23.91
2017-03-03T02:11:34.617Z,24.01
2017-03-03T02:12:44.561Z,23.91
2017-03-03T02:13:55.300Z,23.91
2017-03-03T02:15:05.863Z,24.01
2017-03-03T02:16:16.581Z,23.91
2017-03-03T02:17:26.900Z,24.01
2017-03-03T02:18:37.254Z,23.91
2017-03-03T02:19:47.169Z,24.1
2017-03-03T02:20:57.720Z,24.29
2017-03-03T02:22:08.431Z,24.1
2017-03-03T02:23:17.959Z,24.29
2017-03-03T02:24:28.272Z,24.2
2017-03-03T02:25:37.808Z,24.01
2017-03-03T02:26:47.971Z,24.01
2017-03-03T02:27:58.669Z,24.01
2017-03-03T02:29:08.991Z,24.01
2017-03-03T02:30:19.694Z,24.1
2017-03-03T02:31:30.020Z,24.01
2017-03-03T02:32:40.641Z,24.2
2017-03-03T02:33:50.605Z,24.01
2017-03-03T02:35:00.928Z,24.2
2017-03-03T02:36:10.452Z,24.1
2017-03-03T02:37:20.752Z,24.01
2017-03-03T02:38:31.364Z,24.1
2017-03-03T02:39:40.895Z,24.1
2017-03-03T02:40:50.817Z,24.1
2017-03-03T02:42:01.146Z,24.1
2017-03-03T02:43:11.484Z,24.01
2017-03-03T02:44:21.655Z,23.82
2017-03-03T02:45:31.180Z,23.82
2017-03-03T02:46:41.524Z,23.91
2017-03-03T02:47:50.400Z,23.82
2017-03-03T02:48:59.927Z,23.82
2017-03-03T02:50:10.548Z,23.82
2017-03-03T02:51:20.515Z,23.72
2017-03-03T02:52:30.091Z,23.82
2017-03-03T02:53:40.415Z,23.82
2017-03-03T02:54:50.333Z,23.72
2017-03-03T02:56:00.961Z,23.72
2017-03-03T02:57:10.505Z,23.82
2017-03-03T02:58:20.823Z,23.91
2017-03-03T02:59:30.759Z,23.82
2017-03-03T03:00:40.666Z,23.72
2017-03-03T03:01:50.880Z,23.62
2017-03-03T03:03:01.204Z,23.62
2017-03-03T03:04:11.559Z,23.72
2017-03-03T03:05:21.877Z,23.91
2017-03-03T03:06:31.802Z,23.91
2017-03-03T03:07:42.438Z,23.72
2017-03-03T03:08:52.750Z,23.72
2017-03-03T03:10:01.882Z,23.72
2017-03-03T03:11:11.819Z,23.82
2017-03-03T03:12:21.759Z,23.62
2017-03-03T03:13:32.389Z,23.82
2017-03-03T03:14:42.312Z,23.72
2017-03-03T03:15:52.247Z,23.72
2017-03-03T03:17:02.558Z,23.72
2017-03-03T03:18:12.484Z,23.82
2017-03-03T03:19:22.647Z,23.72
2017-03-03T03:20:32.571Z,23.62
2017-03-03T03:21:42.485Z,23.82
2017-03-03T03:22:52.411Z,23.82
2017-03-03T03:24:03.139Z,24.01
2017-03-03T03:25:13.713Z,23.82
2017-03-03T03:26:24.446Z,23.72
2017-03-03T03:27:33.992Z,23.72
2017-03-03T03:28:43.523Z,23.91
2017-03-03T03:29:53.459Z,23.72
2017-03-03T03:31:03.651Z,23.82
2017-03-03T03:32:13.966Z,23.72
2017-03-03T03:33:23.108Z,23.72
2017-03-03T03:34:33.835Z,23.82
2017-03-03T03:35:43.764Z,23.82
2017-03-03T03:36:54.352Z,23.71
2017-03-03T03:38:04.672Z,23.82
2017-03-03T03:39:15.390Z,23.62
2017-03-03T03:40:24.909Z,23.91
2017-03-03T03:41:35.218Z,24.1
2017-03-03T03:42:46.228Z,23.91
2017-03-03T03:43:56.171Z,23.62
2017-03-03T03:45:06.893Z,23.72
2017-03-03T03:46:16.844Z,23.72
2017-03-03T03:47:26.388Z,23.62
2017-03-03T03:48:37.022Z,23.8
2017-03-03T03:49:47.342Z,23.72
2017-03-03T03:50:58.048Z,23.82
2017-03-03T03:52:07.995Z,23.82
2017-03-03T03:53:17.927Z,23.62
2017-03-03T03:54:28.492Z,23.62
2017-03-03T03:55:38.814Z,23.72
2017-03-03T03:56:49.524Z,23.91
2017-03-03T03:57:59.475Z,23.62
2017-03-03T03:59:09.398Z,23.82
2017-03-03T04:00:19.602Z,23.91
2017-03-03T04:01:29.537Z,23.72
2017-03-03T04:02:39.124Z,23.52
2017-03-03T04:03:49.837Z,23.62
2017-03-03T04:05:00.157Z,23.62
2017-03-03T04:06:10.728Z,23.61
2017-03-03T04:07:21.057Z,23.62
2017-03-03T04:08:30.597Z,23.62
2017-03-03T04:09:40.901Z,23.52
2017-03-03T04:10:50.030Z,23.62
2017-03-03T04:11:59.824Z,23.52
2017-03-03T04:13:10.523Z,23.52
2017-03-03T04:14:20.829Z,23.43
2017-03-03T04:15:30.766Z,23.43
2017-03-03T04:16:41.088Z,23.33
2017-03-03T04:17:51.671Z,23.52
2017-03-03T04:19:01.591Z,23.62
2017-03-03T04:20:11.917Z,23.61
2017-03-03T04:21:22.250Z,23.61
2017-03-03T04:22:32.164Z,23.32
2017-03-03T04:23:42.347Z,23.43
2017-03-03T04:24:52.672Z,23.61
2017-03-03T04:26:03.875Z,23.42
2017-03-03T04:27:13.800Z,23.32
2017-03-03T04:28:23.324Z,23.22
2017-03-03T04:29:33.561Z,22.95
2017-03-03T04:30:43.917Z,23.42
2017-03-03T04:31:53.859Z,23.42
2017-03-03T04:33:04.174Z,23.52
2017-03-03T04:34:14.872Z,23.42
2017-03-03T04:35:25.107Z,23.42
2017-03-03T04:36:35.427Z,23.03
2017-03-03T04:37:44.964Z,23.42
2017-03-03T04:38:54.500Z,23.13
2017-03-03T04:40:04.431Z,23.22
2017-03-03T04:41:14.605Z,23.22
2017-03-03T04:42:25.332Z,23.22
2017-03-03T04:43:35.661Z,23.13
2017-03-03T04:44:46.396Z,23.22
2017-03-03T04:45:56.325Z,23.22
2017-03-03T04:47:05.804Z,23.13
2017-03-03T04:48:16.134Z,23.22
2017-03-03T04:49:26.064Z,23.22
2017-03-03T04:50:36.411Z,23.22
2017-03-03T04:51:46.731Z,23.22
2017-03-03T04:52:57.678Z,23.32
2017-03-03T04:54:08.004Z,23.22
2017-03-03T04:55:17.928Z,23.32
2017-03-03T04:56:27.850Z,23.22
2017-03-03T04:57:37.390Z,23.32
2017-03-03T04:58:47.968Z,23.22
2017-03-03T04:59:57.911Z,23.22
2017-03-03T05:01:08.222Z,23.22
2017-03-03T05:02:18.925Z,23.22
2017-03-03T05:03:28.489Z,23.22
2017-03-03T05:04:38.673Z,23.13
2017-03-03T05:05:48.190Z,23.22
2017-03-03T05:06:57.736Z,23.13
2017-03-03T05:08:08.046Z,23.22
2017-03-03T05:09:18.379Z,23.22
2017-03-03T05:10:28.572Z,23.42
2017-03-03T05:11:39.287Z,23.13
2017-03-03T05:12:49.226Z,22.94
2017-03-03T05:13:59.563Z,23.05
2017-03-03T05:15:09.480Z,22.94
2017-03-03T05:16:19.275Z,23.03
2017-03-03T05:17:30.002Z,22.95
2017-03-03T05:18:39.921Z,22.95
2017-03-03T05:19:50.282Z,22.95
2017-03-03T05:21:01.010Z,23.03
2017-03-03T05:22:11.984Z,23.03
2017-03-03T05:23:22.315Z,23.03
2017-03-03T05:24:33.035Z,23.05
2017-03-03T05:25:43.377Z,22.94
2017-03-03T05:26:53.316Z,22.75
2017-03-03T05:28:03.915Z,22.85
2017-03-03T05:29:13.847Z,22.84
2017-03-03T05:30:23.780Z,22.75
2017-03-03T05:31:34.126Z,22.94
2017-03-03T05:32:44.850Z,22.84
2017-03-03T05:33:55.800Z,22.75
2017-03-03T05:35:05.776Z,22.94
2017-03-03T05:36:16.108Z,22.94
2017-03-03T05:37:25.645Z,22.94
2017-03-03T05:38:35.186Z,22.66
2017-03-03T05:39:45.797Z,22.55
2017-03-03T05:40:56.107Z,22.75
2017-03-03T05:42:06.449Z,22.65
2017-03-03T05:43:16.368Z,22.75
2017-03-03T05:44:26.302Z,22.65
2017-03-03T05:45:36.883Z,22.75
2017-03-03T05:46:46.407Z,22.75
2017-03-03T05:47:56.336Z,22.46
2017-03-03T05:49:06.268Z,22.46
2017-03-03T05:50:16.197Z,22.46
2017-03-03T05:51:26.382Z,22.65
2017-03-03T05:52:35.507Z,22.65
2017-03-03T05:53:46.213Z,22.46
2017-03-03T05:54:56.799Z,22.36
2017-03-03T05:56:07.517Z,22.55
2017-03-03T05:57:18.097Z,22.36
2017-03-03T05:58:28.049Z,22.46
2017-03-03T05:59:38.397Z,22.47
2017-03-03T06:00:48.326Z,22.56
2017-03-03T06:01:57.876Z,22.36
2017-03-03T06:03:08.450Z,22.18
2017-03-03T06:04:19.162Z,22.27
2017-03-03T06:05:29.347Z,22.38
2017-03-03T06:06:38.885Z,22.38
2017-03-03T06:07:49.634Z,21.99
2017-03-03T06:08:59.886Z,22.08
2017-03-03T06:10:09.816Z,22.08
2017-03-03T06:11:19.788Z,22.08
2017-03-03T06:12:30.511Z,21.99
2017-03-03T06:13:40.046Z,21.89
2017-03-03T06:14:50.223Z,22.08
2017-03-03T06:16:00.148Z,22.18
2017-03-03T06:17:10.083Z,22.08
2017-03-03T06:18:20.423Z,22.08
2017-03-03T06:19:30.750Z,22.18
2017-03-03T06:20:41.332Z,22.08
2017-03-03T06:21:51.528Z,22.08
2017-03-03T06:23:01.870Z,22.18
2017-03-03T06:24:12.193Z,22.08
2017-03-03T06:25:22.908Z,22.08
2017-03-03T06:26:33.966Z,21.99
2017-03-03T06:27:44.298Z,21.99
2017-03-03T06:28:55.010Z,21.89
2017-03-03T06:30:04.968Z,21.89
2017-03-03T06:31:14.893Z,21.99
2017-03-03T06:32:25.085Z,22.28
2017-03-03T06:33:35.427Z,22.08
2017-03-03T06:34:45.355Z,21.99
2017-03-03T06:35:56.083Z,21.99
2017-03-03T06:37:06.407Z,22.08
2017-03-03T06:38:16.590Z,22.08
2017-03-03T06:39:26.922Z,21.99
2017-03-03T06:40:37.649Z,21.8
2017-03-03T06:41:47.985Z,21.8
2017-03-03T06:42:58.725Z,21.89
2017-03-03T06:44:09.312Z,21.89
2017-03-03T06:45:19.623Z,21.99
2017-03-03T06:46:29.569Z,21.89
2017-03-03T06:47:39.098Z,21.89
2017-03-03T06:48:49.841Z,21.99
2017-03-03T06:50:00.040Z,21.99
2017-03-03T06:51:10.385Z,21.7
2017-03-03T06:52:20.733Z,21.99
2017-03-03T06:53:29.908Z,21.61
2017-03-03T06:54:40.648Z,21.89
2017-03-03T06:55:50.436Z,22.09
2017-03-03T06:57:00.404Z,21.8
2017-03-03T06:58:10.348Z,21.8
2017-03-03T06:59:20.701Z,21.71
2017-03-03T07:00:31.004Z,21.61
2017-03-03T07:01:41.194Z,21.71
2017-03-03T07:02:51.525Z,21.71
2017-03-03T07:04:01.074Z,21.61
2017-03-03T07:05:11.018Z,21.61
2017-03-03T07:06:21.360Z,21.61
2017-03-03T07:07:32.409Z,21.81
2017-03-03T07:08:43.158Z,21.71
2017-03-03T07:09:53.485Z,21.42
2017-03-03T07:11:03.857Z,21.71
2017-03-03T07:12:14.192Z,21.42
2017-03-03T07:13:25.268Z,21.71
2017-03-03T07:14:35.606Z,21.61
2017-03-03T07:15:45.936Z,21.71
2017-03-03T07:16:55.863Z,21.81
2017-03-03T07:18:05.427Z,21.81
2017-03-03T07:19:15.648Z,21.42
2017-03-03T07:20:25.985Z,21.52
2017-03-03T07:21:36.717Z,21.71
2017-03-03T07:22:46.260Z,21.61
2017-03-03T07:23:56.589Z,21.71
2017-03-03T07:25:07.249Z,21.52
2017-03-03T07:26:17.195Z,21.52
2017-03-03T07:27:27.143Z,21.71
2017-03-03T07:28:37.889Z,21.52
2017-03-03T07:29:48.600Z,21.42
2017-03-03T07:30:58.854Z,21.42
2017-03-03T07:32:09.181Z,21.61
2017-03-03T07:33:19.519Z,21.24
2017-03-03T07:34:29.840Z,21.34
2017-03-03T07:35:39.011Z,21.24
2017-03-03T07:36:49.629Z,21.23
2017-03-03T07:37:59.965Z,21.24
2017-03-03T07:39:10.297Z,21.15
2017-03-03T07:40:20.637Z,21.15
2017-03-03T07:41:30.995Z,21.15
2017-03-03T07:42:42.029Z,21.15
2017-03-03T07:43:52.353Z,20.76
2017-03-03T07:45:03.099Z,21.24
2017-03-03T07:46:12.678Z,21.34
2017-03-03T07:47:23.025Z,21.24
2017-03-03T07:48:33.295Z,21.05
2017-03-03T07:49:42.838Z,21.15
2017-03-03T07:50:53.207Z,21.05
2017-03-03T07:52:03.828Z,21.15
2017-03-03T07:53:14.568Z,21.05
2017-03-03T07:54:24.412Z,21.24
2017-03-03T07:55:34.751Z,21.24
2017-03-03T07:56:44.701Z,21.24
2017-03-03T07:57:54.632Z,21.15
2017-03-03T07:59:04.573Z,21.05
2017-03-03T08:00:15.179Z,21.05
2017-03-03T08:01:25.578Z,21.15
2017-03-03T08:02:36.309Z,21.05
2017-03-03T08:03:46.658Z,20.76
2017-03-03T08:04:57.379Z,21.05
2017-03-03T08:06:07.191Z,20.76
2017-03-03T08:07:17.136Z,21.05
2017-03-03T08:08:27.865Z,21.34
2017-03-03T08:09:38.608Z,21.15
2017-03-03T08:10:48.574Z,21.05
2017-03-03T08:11:58.435Z,20.95
2017-03-03T08:13:08.769Z,21.34
2017-03-03T08:14:19.126Z,21.34
2017-03-03T08:15:29.076Z,21.15
2017-03-03T08:16:39.436Z,21.15
2017-03-03T08:17:49.286Z,21.15
2017-03-03T08:18:59.610Z,21.05
2017-03-03T08:20:09.966Z,21.15
2017-03-03T08:21:20.677Z,21.15
2017-03-03T08:22:30.987Z,21.24
2017-03-03T08:23:41.614Z,20.95
2017-03-03T08:24:51.965Z,21.05
2017-03-03T08:26:02.694Z,21.15
2017-03-03T08:27:13.438Z,21.05
2017-03-03T08:28:23.399Z,20.86
2017-03-03T08:29:34.376Z,21.05
2017-03-03T08:30:44.301Z,21.05
2017-03-03T08:31:54.635Z,21.15
2017-03-03T08:33:03.805Z,21.05
2017-03-03T08:34:14.161Z,21.05
2017-03-03T08:35:24.758Z,21.34
2017-03-03T08:36:34.668Z,21.15
2017-03-03T08:37:45.012Z,21.24
2017-03-03T08:38:55.776Z,21.15
2017-03-03T08:40:06.486Z,21.05
2017-03-03T08:41:15.971Z,20.86
2017-03-03T08:42:26.338Z,20.76
2017-03-03T08:43:36.673Z,20.86
2017-03-03T08:44:46.989Z,20.97
2017-03-03T08:45:56.928Z,21.15
2017-03-03T08:47:07.121Z,21.06
2017-03-03T08:48:17.049Z,20.87
2017-03-03T08:49:27.398Z,20.95
2017-03-03T08:50:37.728Z,20.86
2017-03-03T08:51:48.068Z,20.95
2017-03-03T08:52:58.709Z,20.86
2017-03-03T08:54:09.043Z,21.15
2017-03-03T08:55:19.758Z,21.15
2017-03-03T08:56:30.099Z,21.24
2017-03-03T08:57:40.045Z,21.44
2017-03-03T08:58:51.073Z,21.15
2017-03-03T09:00:00.610Z,21.54
2017-03-03T09:01:11.314Z,21.44
2017-03-03T09:02:21.672Z,21.62
2017-03-03T09:03:31.985Z,21.62
2017-03-03T09:04:43.009Z,21.73
2017-03-03T09:05:53.735Z,21.54
2017-03-03T09:07:04.464Z,21.72
2017-03-03T09:08:14.019Z,21.83
2017-03-03T09:09:24.363Z,21.83
2017-03-03T09:10:34.931Z,21.92
2017-03-03T09:11:45.270Z,21.72
2017-03-03T09:12:55.607Z,21.73
2017-03-03T09:14:06.351Z,21.73
2017-03-03T09:15:16.281Z,21.44
2017-03-03T09:16:26.928Z,21.54
2017-03-03T09:17:37.684Z,21.54
2017-03-03T09:18:47.647Z,21.73
2017-03-03T09:19:57.981Z,21.54
2017-03-03T09:21:08.337Z,21.54
2017-03-03T09:22:18.988Z,21.73
2017-03-03T09:23:29.707Z,21.73
2017-03-03T09:24:39.276Z,21.73
2017-03-03T09:25:49.621Z,21.83
2017-03-03T09:26:59.577Z,21.73
2017-03-03T09:28:10.256Z,21.54
2017-03-03T09:29:20.189Z,21.83
2017-03-03T09:30:30.935Z,21.83
2017-03-03T09:31:41.390Z,21.83
2017-03-03T09:32:51.735Z,21.83
2017-03-03T09:34:02.384Z,21.54
2017-03-03T09:35:12.709Z,21.64
2017-03-03T09:36:23.060Z,21.44
2017-03-03T09:37:33.792Z,21.44
2017-03-03T09:38:44.138Z,21.64
2017-03-03T09:39:54.394Z,21.73
2017-03-03T09:41:04.330Z,21.54
2017-03-03T09:42:14.651Z,21.64
2017-03-03T09:43:24.989Z,21.92
2017-03-03T09:44:35.730Z,21.83
2017-03-03T09:45:46.693Z,21.54
2017-03-03T09:46:57.026Z,21.83
2017-03-03T09:48:07.375Z,21.64
2017-03-03T09:49:17.696Z,21.64
2017-03-03T09:50:27.247Z,21.54
2017-03-03T09:51:37.044Z,21.44
2017-03-03T09:52:46.980Z,21.73
2017-03-03T09:53:57.764Z,21.64
2017-03-03T09:55:07.697Z,21.92
2017-03-03T09:56:18.426Z,21.73
2017-03-03T09:57:28.986Z,21.54
2017-03-03T09:58:39.348Z,21.64
2017-03-03T09:59:49.683Z,21.83
2017-03-03T10:00:59.242Z,21.92
2017-03-03T10:02:09.982Z,21.83
2017-03-03T10:03:20.960Z,21.64
2017-03-03T10:04:31.684Z,21.73
2017-03-03T10:05:41.647Z,21.35
2017-03-03T10:06:51.595Z,21.15
2017-03-03T10:08:01.551Z,21.64
2017-03-03T10:09:12.138Z,21.73
2017-03-03T10:10:22.103Z,21.64
2017-03-03T10:11:32.045Z,21.64
2017-03-03T10:12:42.005Z,21.64
2017-03-03T10:13:52.326Z,21.54
2017-03-03T10:15:02.910Z,21.54
2017-03-03T10:16:13.256Z,21.44
2017-03-03T10:17:23.234Z,21.73
2017-03-03T10:18:33.588Z,21.64
2017-03-03T10:19:43.946Z,21.64
2017-03-03T10:20:54.942Z,21.54
2017-03-03T10:22:05.270Z,21.64
2017-03-03T10:23:15.622Z,21.92
2017-03-03T10:24:26.357Z,21.64
2017-03-03T10:25:37.110Z,21.54
2017-03-03T10:26:47.714Z,21.83
2017-03-03T10:27:58.061Z,22.02
2017-03-03T10:29:06.828Z,22.12
2017-03-03T10:30:17.174Z,22.12
2017-03-03T10:31:27.922Z,22.02
2017-03-03T10:32:38.173Z,22.12
2017-03-03T10:33:48.895Z,21.92
2017-03-03T10:34:59.251Z,21.92
2017-03-03T10:36:09.998Z,22.02
2017-03-03T10:37:20.710Z,22.12
2017-03-03T10:38:31.735Z,21.92
2017-03-03T10:39:41.683Z,21.83
2017-03-03T10:40:51.640Z,22.12
2017-03-03T10:42:01.578Z,21.92
2017-03-03T10:43:12.296Z,22.02
2017-03-03T10:44:22.283Z,22.02
2017-03-03T10:45:33.011Z,21.65
2017-03-03T10:46:43.966Z,21.54
2017-03-03T10:47:54.386Z,22.12
2017-03-03T10:49:05.450Z,21.92
2017-03-03T10:50:15.458Z,21.83
2017-03-03T10:51:25.437Z,21.65
2017-03-03T10:52:35.839Z,21.65
2017-03-03T10:53:46.584Z,21.83
2017-03-03T10:54:56.854Z,21.44
2017-03-03T10:56:07.604Z,21.73
2017-03-03T10:57:17.951Z,21.64
2017-03-03T10:58:28.310Z,21.15
2017-03-03T10:59:38.265Z,21.15
2017-03-03T11:00:48.450Z,21.15
2017-03-03T11:01:59.199Z,21.06
2017-03-03T11:03:09.578Z,20.88
2017-03-03T11:04:19.570Z,20.68
2017-03-03T11:05:29.927Z,21.15
2017-03-03T11:06:40.966Z,21.25
2017-03-03T11:07:50.910Z,21.15
2017-03-03T11:09:00.880Z,20.97
2017-03-03T11:10:11.216Z,21.17
2017-03-03T11:11:21.937Z,21.07
2017-03-03T11:12:32.976Z,20.59
2017-03-03T11:13:43.700Z,20.97
2017-03-03T11:14:53.631Z,20.88
2017-03-03T11:16:04.351Z,21.07
2017-03-03T11:17:15.102Z,21.17
2017-03-03T11:18:26.055Z,20.97
2017-03-03T11:19:35.581Z,20.88
2017-03-03T11:20:45.776Z,20.88
2017-03-03T11:21:56.144Z,20.59
2017-03-03T11:23:06.500Z,20.68
2017-03-03T11:24:17.087Z,20.59
2017-03-03T11:25:27.410Z,20.68
2017-03-03T11:26:38.147Z,20.59
2017-03-03T11:27:48.872Z,20.78
2017-03-03T11:28:59.606Z,20.68
2017-03-03T11:30:09.782Z,20.67
2017-03-03T11:31:20.532Z,20.4
2017-03-03T11:32:30.480Z,20.2
2017-03-03T11:33:40.799Z,20.2
2017-03-03T11:34:50.723Z,20.5
2017-03-03T11:36:00.944Z,20.3
2017-03-03T11:37:11.320Z,20.3
2017-03-03T11:38:22.074Z,20.4
2017-03-03T11:39:32.421Z,20.4
2017-03-03T11:40:42.814Z,20.5
2017-03-03T11:41:53.779Z,20.5
2017-03-03T11:43:03.739Z,20.4
2017-03-03T11:44:13.728Z,20.4
2017-03-03T11:45:24.471Z,20.4
2017-03-03T11:46:33.620Z,20.3
2017-03-03T11:47:44.621Z,20.2
2017-03-03T11:48:54.965Z,20.4
2017-03-03T11:50:04.922Z,20.4
2017-03-03T11:51:15.272Z,20.5
2017-03-03T11:52:26.024Z,20.3
2017-03-03T11:53:36.668Z,20.3
2017-03-03T11:54:47.402Z,20.3
2017-03-03T11:55:56.954Z,20.2
2017-03-03T11:57:07.293Z,20.01
2017-03-03T11:58:18.256Z,20.11
2017-03-03T11:59:28.425Z,20.2
2017-03-03T12:00:38.370Z,20.01
2017-03-03T12:01:48.742Z,20.01
2017-03-03T12:02:58.732Z,20.11
2017-03-03T12:04:09.058Z,19.82
2017-03-03T12:05:19.712Z,19.82
2017-03-03T12:06:30.042Z,19.82
2017-03-03T12:07:40.809Z,19.92
2017-03-03T12:08:51.568Z,19.82
2017-03-03T12:10:01.910Z,19.53
2017-03-03T12:11:12.572Z,19.53
2017-03-03T12:12:22.533Z,19.82
2017-03-03T12:13:32.874Z,19.82
2017-03-03T12:14:43.589Z,19.63
2017-03-03T12:15:53.945Z,19.72
2017-03-03T12:17:03.775Z,19.63
2017-03-03T12:18:14.108Z,19.82
2017-03-03T12:19:24.493Z,19.92
2017-03-03T12:20:34.813Z,19.43
2017-03-03T12:21:45.568Z,19.53
2017-03-03T12:22:55.826Z,19.72
2017-03-03T12:24:06.141Z,19.53
2017-03-03T12:25:16.902Z,19.82
2017-03-03T12:26:26.856Z,19.82
2017-03-03T12:27:37.198Z,20.2
2017-03-03T12:28:47.848Z,20.2
2017-03-03T12:29:58.571Z,20.3
2017-03-03T12:31:08.517Z,20.01
2017-03-03T12:32:19.238Z,20.4
2017-03-03T12:33:29.577Z,20.11
2017-03-03T12:34:40.593Z,19.72
2017-03-03T12:35:50.516Z,19.72
2017-03-03T12:37:00.485Z,19.92
2017-03-03T12:38:09.654Z,19.82
2017-03-03T12:39:19.608Z,19.82
2017-03-03T12:40:30.296Z,19.63
2017-03-03T12:41:41.045Z,19.72
2017-03-03T12:42:51.001Z,19.92
2017-03-03T12:44:01.751Z,19.63
2017-03-03T12:45:11.700Z,19.82
2017-03-03T12:46:22.337Z,19.72
2017-03-03T12:47:32.701Z,19.72
2017-03-03T12:48:43.037Z,19.72
2017-03-03T12:49:52.961Z,19.82
2017-03-03T12:51:03.414Z,19.92
2017-03-03T12:52:14.017Z,19.82
2017-03-03T12:53:24.387Z,19.92
2017-03-03T12:54:34.487Z,19.63
2017-03-03T12:55:44.430Z,19.82
2017-03-03T12:56:54.761Z,19.63
2017-03-03T12:58:05.812Z,19.63
2017-03-03T12:59:16.172Z,19.72
2017-03-03T13:00:26.487Z,19.92
2017-03-03T13:01:36.812Z,19.82
2017-03-03T13:02:45.581Z,19.72
2017-03-03T13:03:56.245Z,19.63
2017-03-03T13:05:06.667Z,19.92
2017-03-03T13:06:17.045Z,19.53
2017-03-03T13:07:26.982Z,19.34
2017-03-03T13:08:37.317Z,19.34
2017-03-03T13:09:47.563Z,19.05
2017-03-03T13:10:58.286Z,19.15
2017-03-03T13:12:08.643Z,19.15
2017-03-03T13:13:18.983Z,19.15
2017-03-03T13:14:29.744Z,19.24
2017-03-03T13:15:39.950Z,19.15
2017-03-03T13:16:51.117Z,18.95
2017-03-03T13:18:00.827Z,18.86
2017-03-03T13:19:10.777Z,19.15
2017-03-03T13:20:20.711Z,19.05
2017-03-03T13:21:31.198Z,18.86
2017-03-03T13:22:41.963Z,18.86
2017-03-03T13:23:51.940Z,18.95
2017-03-03T13:25:01.923Z,18.95
2017-03-03T13:26:12.655Z,18.95
2017-03-03T13:27:23.690Z,18.76
2017-03-03T13:28:34.023Z,18.76
2017-03-03T13:29:44.787Z,18.95
2017-03-03T13:30:55.546Z,18.38
2017-03-03T13:32:05.919Z,18.57
2017-03-03T13:33:16.504Z,18.66
2017-03-03T13:34:26.056Z,18.38
2017-03-03T13:35:36.404Z,18.57
2017-03-03T13:36:47.128Z,18.66
2017-03-03T13:37:57.470Z,18.28
2017-03-03T13:39:07.308Z,18.38
2017-03-03T13:40:18.025Z,18.08
2017-03-03T13:41:27.985Z,18.27
2017-03-03T13:42:38.161Z,18.28
2017-03-03T13:43:48.519Z,17.9
2017-03-03T13:44:59.138Z,17.99
2017-03-03T13:46:09.856Z,17.99
2017-03-03T13:47:20.218Z,17.7
2017-03-03T13:48:30.155Z,17.7
2017-03-03T13:49:40.521Z,17.7
2017-03-03T13:50:51.156Z,17.61
2017-03-03T13:52:01.102Z,17.8
2017-03-03T13:53:11.876Z,17.8
2017-03-03T13:54:22.619Z,17.8
2017-03-03T13:55:33.371Z,17.61
2017-03-03T13:56:42.833Z,17.9
2017-03-03T13:57:53.203Z,17.61
2017-03-03T13:59:03.525Z,17.61
2017-03-03T14:00:13.881Z,17.7
2017-03-03T14:01:24.634Z,17.8
2017-03-03T14:02:35.648Z,17.61
2017-03-03T14:03:45.184Z,17.7
2017-03-03T14:04:55.918Z,17.99
2017-03-03T14:06:05.874Z,17.9
2017-03-03T14:07:16.208Z,17.61
2017-03-03T14:08:26.874Z,17.8
2017-03-03T14:09:36.803Z,17.61
2017-03-03T14:10:47.577Z,17.61
2017-03-03T14:11:57.936Z,17.51
2017-03-03T14:13:08.693Z,17.51
2017-03-03T14:14:19.332Z,17.61
2017-03-03T14:15:28.891Z,17.61
2017-03-03T14:16:39.225Z,17.61
2017-03-03T14:17:49.575Z,17.51
2017-03-03T14:18:59.929Z,17.8
2017-03-03T14:20:10.528Z,17.7
2017-03-03T14:21:20.081Z,17.51
2017-03-03T14:22:30.396Z,17.51
2017-03-03T14:23:40.327Z,17.7
2017-03-03T14:24:51.065Z,17.8
2017-03-03T14:26:01.651Z,17.51
2017-03-03T14:27:11.201Z,17.51
2017-03-03T14:28:20.771Z,17.7
2017-03-03T14:29:31.117Z,17.8
2017-03-03T14:30:41.103Z,17.7
2017-03-03T14:31:52.145Z,17.8
2017-03-03T14:33:02.485Z,17.61
2017-03-03T14:34:13.223Z,17.7
2017-03-03T14:35:23.226Z,17.41
2017-03-03T14:36:33.939Z,17.7
2017-03-03T14:37:43.718Z,17.8
2017-03-03T14:38:54.451Z,17.8
2017-03-03T14:40:04.004Z,17.7
2017-03-03T14:41:13.600Z,17.9
2017-03-03T14:42:23.164Z,17.8
2017-03-03T14:43:33.763Z,17.51
2017-03-03T14:44:44.097Z,17.99
2017-03-03T14:45:54.444Z,17.9
2017-03-03T14:47:04.759Z,17.8
2017-03-03T14:48:15.069Z,17.41
2017-03-03T14:49:26.050Z,17.8
2017-03-03T14:50:36.791Z,17.51
2017-03-03T14:51:47.124Z,17.8
2017-03-03T14:52:57.453Z,17.99
2017-03-03T14:54:07.005Z,17.61
2017-03-03T14:55:17.201Z,17.51
2017-03-03T14:56:27.138Z,17.61
2017-03-03T14:57:37.481Z,17.9
2017-03-03T14:58:47.404Z,17.88
2017-03-03T14:59:57.333Z,17.88
2017-03-03T15:01:08.340Z,17.88
2017-03-03T15:02:19.089Z,17.98
2017-03-03T15:03:29.044Z,17.6
2017-03-03T15:04:39.383Z,17.61
2017-03-03T15:05:48.902Z,17.88
2017-03-03T15:06:58.748Z,17.5
2017-03-03T15:08:09.097Z,17.69